Time;durP1;ratioP1;P1;durP2;ratioP2;P2;SDS_P1;SDS_P2;PMS_P1;PMS_P2;Temp;Humidity;BMP_temperature;BMP_pressure;BME280_temperature;BME280_humidity;BME280_pressure;Samples;Min_cycle;Max_cycle;Signal;HPM_P1;HPM_P2
2022/12/05 00:01:34;;;;;;;79.70;32.40;;;;;;;;;;5114982;28;20043;-68
2022/12/05 00:04:03;;;;;;;38.15;18.88;;;;;;;;;;5114951;28;20028;-68
2022/12/05 00:06:29;;;;;;;53.78;20.75;;;;;;;;;;5114846;28;20484;-68
2022/12/05 00:08:55;;;;;;;55.20;22.10;;;;;;;;;;5114649;28;20019;-68
2022/12/05 00:11:24;;;;;;;36.30;15.23;;;;;;;;;;5114794;28;20110;-69
2022/12/05 00:13:52;;;;;;;73.75;24.60;;;;;;;;;;5114792;28;20028;-69
2022/12/05 00:16:20;;;;;;;61.15;23.40;;;;;;;;;;5114572;28;20038;-69
2022/12/05 00:18:47;;;;;;;81.55;28.42;;;;;;;;;;5114718;28;20053;-69
2022/12/05 00:21:15;;;;;;;85.10;31.45;;;;;;;;;;5114676;28;20027;-69
2022/12/05 00:23:40;;;;;;;42.55;17.13;;;;;;;;;;5114633;28;20016;-69
2022/12/05 00:26:07;;;;;;;49.63;20.00;;;;;;;;;;5114407;28;20028;-69
2022/12/05 00:28:33;;;;;;;43.13;18.33;;;;;;;;;;5114590;28;20032;-69
2022/12/05 00:31:06;;;;;;;68.75;25.23;;;;;;;;;;5113962;28;20027;-69
2022/12/05 00:33:32;;;;;;;59.53;21.98;;;;;;;;;;5114444;28;20031;-69
2022/12/05 00:36:06;;;;;;;53.28;19.33;;;;;;;;;;5114163;28;20043;-68
2022/12/05 00:38:32;;;;;;;43.83;17.70;;;;;;;;;;5114240;28;20035;-68
2022/12/05 00:41:09;;;;;;;57.53;21.98;;;;;;;;;;5114278;28;20028;-68
2022/12/05 00:43:35;;;;;;;39.03;15.88;;;;;;;;;;5114117;28;20024;-68
2022/12/05 00:46:06;;;;;;;56.00;21.92;;;;;;;;;;5113906;28;20572;-68
2022/12/05 00:48:32;;;;;;;52.05;20.60;;;;;;;;;;5114179;28;20051;-68
2022/12/05 00:51:04;;;;;;;43.15;20.50;;;;;;;;;;5113896;28;20035;-68
2022/12/05 00:53:30;;;;;;;59.53;23.60;;;;;;;;;;5114007;28;20034;-68
2022/12/05 00:56:00;;;;;;;32.17;14.95;;;;;;;;;;5113944;28;20023;-68
2022/12/05 00:58:26;;;;;;;70.80;26.98;;;;;;;;;;5114113;27;20202;-69
2022/12/05 01:00:51;;;;;;;72.25;28.55;;;;;;;;;;5113676;28;20490;-68
2022/12/05 01:03:16;;;;;;;53.72;22.30;;;;;;;;;;5113800;28;20027;-68
2022/12/05 01:05:42;;;;;;;66.43;24.85;;;;;;;;;;5113700;28;20047;-68
2022/12/05 01:08:07;;;;;;;73.00;27.88;;;;;;;;;;5113726;27;20035;-69
2022/12/05 01:10:33;;;;;;;95.28;34.92;;;;;;;;;;5113755;28;20063;-69
2022/12/05 01:12:58;;;;;;;82.20;26.02;;;;;;;;;;5113614;28;20023;-69
2022/12/05 01:15:24;;;;;;;70.40;25.40;;;;;;;;;;5113317;28;20027;-69
2022/12/05 01:17:49;;;;;;;69.60;27.80;;;;;;;;;;5113421;28;20485;-69
2022/12/05 01:20:15;;;;;;;53.92;20.40;;;;;;;;;;5113552;28;20023;-69
2022/12/05 01:22:40;;;;;;;79.07;27.30;;;;;;;;;;5113463;28;20028;-69
2022/12/05 01:25:06;;;;;;;72.47;24.10;;;;;;;;;;5113302;28;20122;-69
2022/12/05 01:27:31;;;;;;;44.88;16.85;;;;;;;;;;5113401;28;20030;-69
2022/12/05 01:29:57;;;;;;;54.85;21.33;;;;;;;;;;5113126;28;20110;-69
2022/12/05 01:32:22;;;;;;;77.55;26.92;;;;;;;;;;5112001;28;20035;-69
2022/12/05 01:34:48;;;;;;;62.75;22.83;;;;;;;;;;5113123;28;20045;-68
2022/12/05 01:37:13;;;;;;;63.53;23.05;;;;;;;;;;5113495;28;20028;-68
2022/12/05 01:39:39;;;;;;;87.95;27.13;;;;;;;;;;5113373;28;20034;-69
2022/12/05 01:42:05;;;;;;;74.68;24.20;;;;;;;;;;5113158;28;20038;-68
2022/12/05 01:44:30;;;;;;;74.65;26.48;;;;;;;;;;5113183;28;20030;-68
2022/12/05 01:46:56;;;;;;;72.20;24.73;;;;;;;;;;5113184;28;20028;-68
2022/12/05 01:49:30;;;;;;;58.38;23.35;;;;;;;;;;5113106;28;20027;-68
2022/12/05 01:52:01;;;;;;;46.28;18.00;;;;;;;;;;5113080;28;20436;-68
2022/12/05 01:54:27;;;;;;;65.22;24.73;;;;;;;;;;5113150;28;20033;-68
2022/12/05 01:56:59;;;;;;;73.05;27.30;;;;;;;;;;5112783;28;20027;-68
2022/12/05 01:59:27;;;;;;;59.30;22.35;;;;;;;;;;5112922;28;20056;-68
2022/12/05 02:01:53;;;;;;;54.75;20.50;;;;;;;;;;5113085;28;20023;-68
2022/12/05 02:04:19;;;;;;;55.00;22.52;;;;;;;;;;5113080;28;20450;-68
2022/12/05 02:06:45;;;;;;;49.33;18.88;;;;;;;;;;5112907;28;20028;-68
2022/12/05 02:09:11;;;;;;;62.45;23.20;;;;;;;;;;5113037;28;20019;-68
2022/12/05 02:11:54;;;;;;;54.25;19.95;;;;;;;;;;5112761;28;20046;-68
2022/12/05 02:14:44;;;;;;;48.35;20.00;;;;;;;;;;5112940;28;20378;-68
2022/12/05 02:17:24;;;;;;;51.83;18.85;;;;;;;;;;5112987;28;20466;-68
2022/12/05 02:20:22;;;;;;;51.40;17.80;;;;;;;;;;5112854;28;20024;-68
2022/12/05 02:23:12;;;;;;;44.65;20.45;;;;;;;;;;5115540;28;20134;-68
2022/12/05 02:25:59;;;;;;;54.38;21.35;;;;;;;;;;5116711;28;20032;-69
2022/12/05 02:28:33;;;;;;;47.83;17.13;;;;;;;;;;5116813;28;20032;-69
2022/12/05 02:31:21;;;;;;;52.63;18.77;;;;;;;;;;5116686;28;20024;-69
2022/12/05 02:33:58;;;;;;;39.33;17.60;;;;;;;;;;5116758;28;20027;-69
2022/12/05 02:36:38;;;;;;;68.30;26.30;;;;;;;;;;5116610;28;20051;-69
2022/12/05 02:39:22;;;;;;;56.50;19.85;;;;;;;;;;5116788;28;20023;-69
2022/12/05 02:41:57;;;;;;;60.72;23.10;;;;;;;;;;5116456;28;20035;-68
2022/12/05 02:44:40;;;;;;;62.80;23.85;;;;;;;;;;5116596;28;20049;-68
2022/12/05 02:47:07;;;;;;;42.53;16.27;;;;;;;;;;5116580;28;20028;-68
2022/12/05 02:49:35;;;;;;;64.50;24.60;;;;;;;;;;5116566;28;20015;-68
2022/12/05 02:52:07;;;;;;;61.17;18.00;;;;;;;;;;5116347;28;20031;-68
2022/12/05 02:54:37;;;;;;;54.05;22.90;;;;;;;;;;5116476;28;20374;-68
2022/12/05 02:57:04;;;;;;;70.45;24.45;;;;;;;;;;5116259;28;20027;-68
2022/12/05 02:59:29;;;;;;;50.88;19.27;;;;;;;;;;5116342;28;20081;-69
2022/12/05 03:01:55;;;;;;;69.18;24.67;;;;;;;;;;5116069;28;20408;-69
2022/12/05 03:04:24;;;;;;;54.35;19.08;;;;;;;;;;5116044;28;20030;-69
2022/12/05 03:07:10;;;;;;;56.13;21.73;;;;;;;;;;5116051;28;20059;-69
2022/12/05 03:09:44;;;;;;;47.63;18.17;;;;;;;;;;5116034;28;20047;-69
2022/12/05 03:12:24;;;;;;;67.95;23.13;;;;;;;;;;5115906;28;20038;-69
2022/12/05 03:14:53;;;;;;;34.08;13.75;;;;;;;;;;5115990;28;20026;-69
2022/12/05 03:17:23;;;;;;;51.72;20.95;;;;;;;;;;5115756;28;20057;-69
2022/12/05 03:20:04;;;;;;;73.15;25.95;;;;;;;;;;5115895;28;20406;-69
2022/12/05 03:22:34;;;;;;;97.70;31.70;;;;;;;;;;5115801;28;20384;-69
2022/12/05 03:25:01;;;;;;;91.97;32.10;;;;;;;;;;5115550;28;20023;-69
2022/12/05 03:27:34;;;;;;;74.43;24.73;;;;;;;;;;5115775;28;20035;-68
2022/12/05 03:30:07;;;;;;;76.07;25.80;;;;;;;;;;5115636;28;20027;-68
2022/12/05 03:32:58;;;;;;;68.40;25.05;;;;;;;;;;5114755;28;20470;-69
2022/12/05 03:35:29;;;;;;;77.90;26.80;;;;;;;;;;5107753;28;20040;-69
2022/12/05 03:37:58;;;;;;;53.97;20.13;;;;;;;;;;5115516;28;20031;-69
2022/12/05 03:41:01;;;;;;;51.47;18.80;;;;;;;;;;5115085;28;20529;-69
2022/12/05 03:43:39;;;;;;;62.70;22.70;;;;;;;;;;5115461;28;20424;-68
2022/12/05 03:46:14;;;;;;;56.20;20.85;;;;;;;;;;5115377;28;20052;-69
2022/12/05 03:48:56;;;;;;;65.20;23.02;;;;;;;;;;5115288;28;20015;-68
2022/12/05 03:51:44;;;;;;;61.03;21.95;;;;;;;;;;5115069;27;20027;-68
2022/12/05 03:54:15;;;;;;;71.60;24.10;;;;;;;;;;5115003;28;20027;-68
2022/12/05 03:57:06;;;;;;;90.18;30.00;;;;;;;;;;5115008;28;20080;-68
2022/12/05 03:59:38;;;;;;;59.42;22.75;;;;;;;;;;5115106;28;20047;-68
2022/12/05 04:02:11;;;;;;;55.92;21.80;;;;;;;;;;5115050;28;20034;-68
2022/12/05 04:04:49;;;;;;;66.10;23.13;;;;;;;;;;5114882;28;20023;-68
2022/12/05 04:07:17;;;;;;;66.43;23.52;;;;;;;;;;5114845;28;20058;-68
2022/12/05 04:09:48;;;;;;;62.80;24.52;;;;;;;;;;5115060;28;20111;-68
2022/12/05 04:12:19;;;;;;;55.35;20.45;;;;;;;;;;5114898;28;20031;-68
2022/12/05 04:14:51;;;;;;;59.97;22.90;;;;;;;;;;5114787;28;20386;-68
2022/12/05 04:17:34;;;;;;;61.67;23.83;;;;;;;;;;5114618;28;20068;-68
2022/12/05 04:23:01;;;;;;;61.42;22.40;;;;;;;;;;5114629;28;20122;-68
2022/12/05 04:25:36;;;;;;;50.63;19.52;;;;;;;;;;5114429;28;20032;-68
2022/12/05 04:28:31;;;;;;;57.83;21.92;;;;;;;;;;5114497;28;20024;-68
2022/12/05 04:31:13;;;;;;;29.00;14.32;;;;;;;;;;5114525;28;20024;-68
2022/12/05 04:33:49;;;;;;;60.80;22.55;;;;;;;;;;5114640;28;20036;-68
2022/12/05 04:36:32;;;;;;;59.30;22.90;;;;;;;;;;5114227;28;20046;-68
2022/12/05 04:39:09;;;;;;;77.18;28.17;;;;;;;;;;5114119;28;20106;-68
2022/12/05 04:41:43;;;;;;;54.58;20.45;;;;;;;;;;5114327;28;20018;-69
2022/12/05 04:44:13;;;;;;;35.50;14.40;;;;;;;;;;5113774;28;20020;-68
2022/12/05 04:46:42;;;;;;;63.40;23.58;;;;;;;;;;5114262;28;20102;-68
2022/12/05 04:49:11;;;;;;;42.42;17.95;;;;;;;;;;5114237;28;20028;-69
2022/12/05 04:51:38;;;;;;;55.08;21.10;;;;;;;;;;5113729;28;20100;-69
2022/12/05 04:54:10;;;;;;;54.00;20.70;;;;;;;;;;5114023;28;20359;-69
2022/12/05 04:56:37;;;;;;;85.50;30.92;;;;;;;;;;5114001;28;20015;-68
2022/12/05 04:59:03;;;;;;;42.88;18.30;;;;;;;;;;5113970;28;20224;-69
2022/12/05 05:01:37;;;;;;;67.13;23.85;;;;;;;;;;5113984;28;20026;-69
2022/12/05 05:04:13;;;;;;;83.00;30.30;;;;;;;;;;5113768;28;20504;-69
2022/12/05 05:06:40;;;;;;;75.75;23.55;;;;;;;;;;5113742;28;20126;-69
2022/12/05 05:09:06;;;;;;;68.35;23.95;;;;;;;;;;5113775;28;20027;-69
2022/12/05 05:11:33;;;;;;;73.43;24.65;;;;;;;;;;5113619;28;20125;-69
2022/12/05 05:14:00;;;;;;;53.58;21.58;;;;;;;;;;5112381;28;20039;-69
2022/12/05 05:16:35;;;;;;;44.08;18.45;;;;;;;;;;5113573;28;20047;-69
2022/12/05 05:19:01;;;;;;;42.67;18.08;;;;;;;;;;5113324;28;20028;-68
2022/12/05 05:21:37;;;;;;;67.78;25.05;;;;;;;;;;5113370;28;20047;-69
2022/12/05 05:24:04;;;;;;;44.50;18.05;;;;;;;;;;5113466;28;20020;-69
2022/12/05 05:26:32;;;;;;;72.25;24.90;;;;;;;;;;5113176;28;20497;-69
2022/12/05 05:28:57;;;;;;;64.90;22.75;;;;;;;;;;5113381;28;20031;-69
2022/12/05 05:31:24;;;;;;;78.28;27.80;;;;;;;;;;5113075;28;20027;-68
2022/12/05 05:33:51;;;;;;;57.30;20.52;;;;;;;;;;5113264;28;20027;-68
2022/12/05 05:36:18;;;;;;;85.00;28.00;;;;;;;;;;5111617;28;20104;-69
2022/12/05 05:38:46;;;;;;;80.80;28.08;;;;;;;;;;5113166;28;20054;-69
2022/12/05 05:41:20;;;;;;;50.03;19.98;;;;;;;;;;5113048;28;20020;-69
2022/12/05 05:43:46;;;;;;;66.97;24.92;;;;;;;;;;5113293;28;20032;-69
2022/12/05 05:46:12;;;;;;;63.42;23.83;;;;;;;;;;5113277;28;20533;-68
2022/12/05 05:48:38;;;;;;;76.38;27.23;;;;;;;;;;5113038;28;20055;-68
2022/12/05 05:51:06;;;;;;;71.60;26.25;;;;;;;;;;5112945;28;20106;-68
2022/12/05 05:53:32;;;;;;;30.52;12.65;;;;;;;;;;5113003;28;20028;-68
2022/12/05 05:56:02;;;;;;;63.33;23.52;;;;;;;;;;5112508;28;20047;-68
2022/12/05 05:58:27;;;;;;;68.28;24.08;;;;;;;;;;5113271;28;20023;-68
2022/12/05 06:00:53;;;;;;;71.28;25.75;;;;;;;;;;5112894;28;20436;-68
2022/12/05 06:03:18;;;;;;;71.35;27.75;;;;;;;;;;5112645;28;20027;-68
2022/12/05 06:05:43;;;;;;;48.90;20.63;;;;;;;;;;5112692;28;20023;-68
2022/12/05 06:08:09;;;;;;;78.47;26.42;;;;;;;;;;5112619;28;20028;-68
2022/12/05 06:10:37;;;;;;;81.90;25.45;;;;;;;;;;5112677;28;20024;-68
2022/12/05 06:13:03;;;;;;;75.20;26.85;;;;;;;;;;5112897;28;20416;-68
2022/12/05 06:15:28;;;;;;;80.65;24.95;;;;;;;;;;5112690;28;20106;-69
2022/12/05 06:17:55;;;;;;;74.25;26.63;;;;;;;;;;5112038;28;20032;-68
2022/12/05 06:20:21;;;;;;;69.30;25.33;;;;;;;;;;5112467;28;20118;-68
2022/12/05 06:22:46;;;;;;;47.15;20.52;;;;;;;;;;5112407;28;20498;-68
2022/12/05 06:25:11;;;;;;;60.75;22.25;;;;;;;;;;5110854;28;20031;-68
2022/12/05 06:27:37;;;;;;;70.72;23.70;;;;;;;;;;5112468;28;20026;-68
2022/12/05 06:30:03;;;;;;;63.60;25.95;;;;;;;;;;5112284;28;20534;-67
2022/12/05 06:32:29;;;;;;;58.67;22.73;;;;;;;;;;5111922;28;20015;-67
2022/12/05 06:34:54;;;;;;;34.17;15.13;;;;;;;;;;5112377;28;20092;-67
2022/12/05 06:37:20;;;;;;;70.75;24.80;;;;;;;;;;5112938;28;20030;-67
2022/12/05 06:39:45;;;;;;;62.13;20.83;;;;;;;;;;5112764;28;20031;-67
2022/12/05 06:42:11;;;;;;;62.05;23.30;;;;;;;;;;5112514;28;20059;-68
2022/12/05 06:44:36;;;;;;;60.67;21.20;;;;;;;;;;5112351;28;20085;-67
2022/12/05 06:47:02;;;;;;;73.68;25.33;;;;;;;;;;5112305;28;20028;-67
2022/12/05 06:49:31;;;;;;;83.15;28.48;;;;;;;;;;5112569;28;20076;-67
2022/12/05 06:51:58;;;;;;;61.15;22.60;;;;;;;;;;5112101;28;20031;-67
2022/12/05 06:54:23;;;;;;;83.20;25.65;;;;;;;;;;5112120;28;20016;-67
2022/12/05 06:56:49;;;;;;;67.28;23.42;;;;;;;;;;5112431;28;20165;-68
2022/12/05 06:59:14;;;;;;;76.07;25.67;;;;;;;;;;5112297;28;20027;-68
2022/12/05 07:01:41;;;;;;;79.13;26.48;;;;;;;;;;5112300;28;20024;-68
2022/12/05 07:04:06;;;;;;;72.32;26.13;;;;;;;;;;5112498;28;20027;-68
2022/12/05 07:06:33;;;;;;;94.25;28.52;;;;;;;;;;5111971;28;20474;-67
2022/12/05 07:08:59;;;;;;;87.68;29.38;;;;;;;;;;5115612;28;20027;-68
2022/12/05 07:11:24;;;;;;;86.88;31.23;;;;;;;;;;5115479;28;20036;-68
2022/12/05 07:13:50;;;;;;;56.03;22.35;;;;;;;;;;5115733;28;20016;-68
2022/12/05 07:16:16;;;;;;;67.93;24.00;;;;;;;;;;5115455;28;20031;-68
2022/12/05 07:18:41;;;;;;;48.92;16.40;;;;;;;;;;5114462;28;20023;-68
2022/12/05 07:21:09;;;;;;;65.35;24.40;;;;;;;;;;5115363;28;20328;-69
2022/12/05 07:23:35;;;;;;;36.97;16.83;;;;;;;;;;5115646;28;20023;-69
2022/12/05 07:26:22;;;;;;;35.30;16.25;;;;;;;;;;5115314;28;20080;-68
2022/12/05 07:28:49;;;;;;;43.40;16.52;;;;;;;;;;5115585;28;20084;-68
2022/12/05 07:31:18;;;;;;;58.70;23.98;;;;;;;;;;5115022;28;20024;-68
2022/12/05 07:33:44;;;;;;;53.33;21.05;;;;;;;;;;5115539;28;20027;-68
2022/12/05 07:36:13;;;;;;;61.13;23.30;;;;;;;;;;5115297;28;20050;-68
2022/12/05 07:38:39;;;;;;;53.38;22.83;;;;;;;;;;5114044;28;20023;-68
2022/12/05 07:41:06;;;;;;;56.03;22.45;;;;;;;;;;5115518;28;20050;-68
2022/12/05 07:43:32;;;;;;;50.53;18.95;;;;;;;;;;5115302;28;20050;-68
2022/12/05 07:46:05;;;;;;;61.95;22.55;;;;;;;;;;5115065;28;20478;-67
2022/12/05 07:48:31;;;;;;;54.55;20.05;;;;;;;;;;5115212;28;20070;-67
2022/12/05 07:51:02;;;;;;;39.75;16.55;;;;;;;;;;5115349;28;20032;-67
2022/12/05 07:53:29;;;;;;;55.22;24.55;;;;;;;;;;5115045;28;20055;-67
2022/12/05 07:55:54;;;;;;;61.53;25.17;;;;;;;;;;5115043;28;20034;-67
2022/12/05 07:58:20;;;;;;;42.55;18.20;;;;;;;;;;5115000;28;20102;-67
2022/12/05 08:00:45;;;;;;;47.70;19.20;;;;;;;;;;5114835;28;20031;-67
2022/12/05 08:03:11;;;;;;;56.28;26.00;;;;;;;;;;5114843;28;20104;-67
2022/12/05 08:05:37;;;;;;;40.22;17.42;;;;;;;;;;5112580;28;20698;-67
2022/12/05 08:08:02;;;;;;;51.05;22.33;;;;;;;;;;5113183;28;20024;-67
2022/12/05 08:10:28;;;;;;;55.00;19.30;;;;;;;;;;5103313;28;20420;-68
2022/12/05 08:12:54;;;;;;;21.60;10.48;;;;;;;;;;5112623;28;20065;-67
2022/12/05 08:15:20;;;;;;;27.13;13.52;;;;;;;;;;5113269;28;20030;-67
2022/12/05 08:17:45;;;;;;;40.47;19.95;;;;;;;;;;5113672;28;20386;-67
2022/12/05 08:20:11;;;;;;;52.22;22.88;;;;;;;;;;5113106;28;20154;-67
2022/12/05 08:22:37;;;;;;;38.72;18.48;;;;;;;;;;5103318;28;20028;-67
2022/12/05 08:25:02;;;;;;;47.53;21.10;;;;;;;;;;5109078;28;20487;-67
2022/12/05 08:27:28;;;;;;;43.03;18.83;;;;;;;;;;5095484;28;20027;-69
2022/12/05 08:29:53;;;;;;;47.10;18.52;;;;;;;;;;5113445;28;20027;-67
2022/12/05 08:32:19;;;;;;;39.20;17.55;;;;;;;;;;5113382;28;20039;-67
2022/12/05 08:34:44;;;;;;;41.30;19.92;;;;;;;;;;5113305;28;20040;-68
2022/12/05 08:37:10;;;;;;;14.52;9.20;;;;;;;;;;5113408;28;20039;-68
2022/12/05 08:39:36;;;;;;;42.08;20.23;;;;;;;;;;5113444;28;20025;-67
2022/12/05 08:42:01;;;;;;;35.72;16.80;;;;;;;;;;5113277;28;20539;-67
2022/12/05 08:44:28;;;;;;;39.50;19.05;;;;;;;;;;5113323;28;20063;-68
2022/12/05 08:46:53;;;;;;;48.20;20.63;;;;;;;;;;5113840;28;20066;-68
2022/12/05 08:49:19;;;;;;;47.55;16.88;;;;;;;;;;5106136;28;20028;-68
2022/12/05 08:51:45;;;;;;;49.90;19.25;;;;;;;;;;5110747;28;20039;-67
2022/12/05 08:54:11;;;;;;;38.53;19.08;;;;;;;;;;5093314;28;20429;-68
2022/12/05 08:56:37;;;;;;;61.80;25.30;;;;;;;;;;5099583;28;20023;-67
2022/12/05 08:59:04;;;;;;;38.25;17.17;;;;;;;;;;5113229;28;20043;-68
2022/12/05 09:01:30;;;;;;;31.05;12.63;;;;;;;;;;5113625;28;20023;-69
2022/12/05 09:03:59;;;;;;;41.40;19.25;;;;;;;;;;5113423;28;20127;-68
2022/12/05 09:06:26;;;;;;;28.08;13.70;;;;;;;;;;5113266;28;20099;-68
2022/12/05 09:08:54;;;;;;;47.03;20.67;;;;;;;;;;5113125;28;20027;-68
2022/12/05 09:11:24;;;;;;;46.97;20.92;;;;;;;;;;5113089;28;20043;-68
2022/12/05 09:13:51;;;;;;;54.42;24.08;;;;;;;;;;5112969;28;20027;-68
2022/12/05 09:16:20;;;;;;;43.35;21.30;;;;;;;;;;5113357;28;20034;-69
2022/12/05 09:18:46;;;;;;;46.25;21.95;;;;;;;;;;5113073;28;20439;-69
2022/12/05 09:21:15;;;;;;;68.38;28.08;;;;;;;;;;5111699;28;20114;-69
2022/12/05 09:23:41;;;;;;;52.22;23.73;;;;;;;;;;5112911;28;20030;-69
2022/12/05 09:26:09;;;;;;;52.65;24.95;;;;;;;;;;5112638;28;20024;-68
2022/12/05 09:28:35;;;;;;;17.98;9.88;;;;;;;;;;5113131;28;20019;-68
2022/12/05 09:31:03;;;;;;;30.75;15.65;;;;;;;;;;5112137;27;20023;-69
2022/12/05 09:33:31;;;;;;;41.83;20.50;;;;;;;;;;5112883;28;20035;-68
2022/12/05 09:35:57;;;;;;;41.67;19.70;;;;;;;;;;5110202;28;20055;-68
2022/12/05 09:38:22;;;;;;;28.55;14.30;;;;;;;;;;5092679;28;20024;-68
2022/12/05 09:40:59;;;;;;;58.38;25.38;;;;;;;;;;5092573;28;20034;-68
2022/12/05 09:43:59;;;;;;;40.28;19.05;;;;;;;;;;5092558;28;20066;-68
2022/12/05 09:46:46;;;;;;;51.38;23.92;;;;;;;;;;5092561;28;20028;-69
2022/12/05 09:49:12;;;;;;;43.03;19.05;;;;;;;;;;5092375;28;20103;-68
2022/12/05 09:51:42;;;;;;;31.83;17.40;;;;;;;;;;5092277;28;20020;-68
2022/12/05 09:54:10;;;;;;;41.90;19.45;;;;;;;;;;5092291;28;20054;-68
2022/12/05 09:56:37;;;;;;;43.75;19.35;;;;;;;;;;5092222;28;20054;-68
2022/12/05 09:59:04;;;;;;;52.33;21.80;;;;;;;;;;5104964;28;20027;-68
2022/12/05 10:01:42;;;;;;;42.10;20.10;;;;;;;;;;5112442;28;20056;-69
2022/12/05 10:04:51;;;;;;;50.17;23.40;;;;;;;;;;5112632;28;20028;-68
2022/12/05 10:07:23;;;;;;;37.05;17.95;;;;;;;;;;5112627;28;20073;-68
2022/12/05 10:09:56;;;;;;;26.58;12.88;;;;;;;;;;5112151;28;20544;-68
2022/12/05 10:12:37;;;;;;;37.45;16.83;;;;;;;;;;5112385;28;20432;-67
2022/12/05 10:15:17;;;;;;;;;;;;;;;;;;5112271;28;20023;-68
2022/12/05 10:17:55;;;;;;;38.08;18.55;;;;;;;;;;5109757;28;20006;-66
2022/12/05 10:20:45;;;;;;;33.80;17.35;;;;;;;;;;5109557;28;20111;-67
2022/12/05 10:23:20;;;;;;;31.20;14.80;;;;;;;;;;5048919;28;20029;-68
2022/12/05 10:25:47;;;;;;;35.70;17.92;;;;;;;;;;5046049;28;20036;-69
2022/12/05 10:28:32;;;;;;;43.58;21.65;;;;;;;;;;5049290;28;20041;-67
2022/12/05 10:31:04;;;;;;;26.20;11.40;;;;;;;;;;5032773;28;20028;-67
2022/12/05 10:33:36;;;;;;;28.85;14.98;;;;;;;;;;5049342;28;20040;-67
2022/12/05 10:36:05;;;;;;;30.02;15.20;;;;;;;;;;5048868;28;20049;-67
2022/12/05 10:38:31;;;;;;;44.10;20.05;;;;;;;;;;5049014;28;20033;-67
2022/12/05 10:41:03;;;;;;;33.10;15.65;;;;;;;;;;5046252;28;20396;-67
2022/12/05 10:43:31;;;;;;;37.17;18.77;;;;;;;;;;5051495;28;20037;-67
2022/12/05 10:45:57;;;;;;;33.50;17.23;;;;;;;;;;5052768;28;20032;-67
2022/12/05 10:48:23;;;;;;;40.15;17.35;;;;;;;;;;5052896;28;20041;-67
2022/12/05 10:50:55;;;;;;;31.52;16.50;;;;;;;;;;5052960;28;20025;-67
2022/12/05 10:53:27;;;;;;;35.33;17.00;;;;;;;;;;5052534;28;20044;-67
2022/12/05 10:55:54;;;;;;;36.28;18.70;;;;;;;;;;5053331;28;20115;-67
2022/12/05 10:58:23;;;;;;;33.15;15.23;;;;;;;;;;5053160;28;20063;-67
2022/12/05 11:00:51;;;;;;;37.13;15.13;;;;;;;;;;5100915;28;20044;-68
2022/12/05 11:03:23;;;;;;;36.83;16.67;;;;;;;;;;5115908;28;20027;-67
2022/12/05 11:05:50;;;;;;;30.52;15.77;;;;;;;;;;5115617;27;20527;-68
2022/12/05 11:08:27;;;;;;;32.17;15.57;;;;;;;;;;5115405;28;20027;-68
2022/12/05 11:11:19;;;;;;;25.55;14.02;;;;;;;;;;5115812;28;20020;-68
2022/12/05 11:13:58;;;;;;;32.25;15.77;;;;;;;;;;5115763;28;20030;-68
2022/12/05 11:16:27;;;;;;;31.25;15.90;;;;;;;;;;5115859;28;20470;-68
2022/12/05 11:18:53;;;;;;;30.98;16.45;;;;;;;;;;5115819;28;20359;-68
2022/12/05 11:21:19;;;;;;;38.38;17.75;;;;;;;;;;5115519;28;20027;-68
2022/12/05 11:23:46;;;;;;;40.40;19.00;;;;;;;;;;5115260;28;20057;-68
2022/12/05 11:26:31;;;;;;;18.48;10.43;;;;;;;;;;5115426;28;20035;-68
2022/12/05 11:28:56;;;;;;;22.27;11.38;;;;;;;;;;5115218;28;20026;-68
2022/12/05 11:31:26;;;;;;;31.98;14.45;;;;;;;;;;5115255;28;20024;-69
2022/12/05 11:34:16;;;;;;;30.10;15.10;;;;;;;;;;5114921;28;20031;-68
2022/12/05 11:36:54;;;;;;;26.27;12.23;;;;;;;;;;5111694;28;20038;-68
2022/12/05 11:39:20;;;;;;;29.65;15.00;;;;;;;;;;5114491;28;20042;-68
2022/12/05 11:42:19;;;;;;;21.85;10.70;;;;;;;;;;5114575;28;20099;-68
2022/12/05 11:45:22;;;;;;;21.98;11.38;;;;;;;;;;5114748;27;20080;-68
2022/12/05 11:47:47;;;;;;;35.78;16.35;;;;;;;;;;5113619;28;20028;-68
2022/12/05 11:50:33;;;;;;;32.72;13.80;;;;;;;;;;5114916;28;20028;-68
2022/12/05 11:53:17;;;;;;;36.92;14.85;;;;;;;;;;5114602;28;20382;-67
2022/12/05 11:55:45;;;;;;;30.23;14.25;;;;;;;;;;5114173;28;20031;-67
2022/12/05 11:58:42;;;;;;;32.92;13.77;;;;;;;;;;5108647;28;20031;-67
2022/12/05 12:01:23;;;;;;;31.40;15.10;;;;;;;;;;5107681;28;20036;-68
2022/12/05 12:04:00;;;;;;;;;;;;;;;;;;5115007;28;20035;-68
2022/12/05 12:06:39;;;;;;;41.45;16.08;;;;;;;;;;5112105;28;19924;-68
2022/12/05 12:09:21;;;;;;;25.75;13.00;;;;;;;;;;5112388;28;20050;-68
2022/12/05 12:11:52;;;;;;;25.85;14.63;;;;;;;;;;5111514;28;20077;-68
2022/12/05 12:14:30;;;;;;;29.60;15.20;;;;;;;;;;5114032;28;20098;-68
2022/12/05 12:17:08;;;;;;;25.13;13.85;;;;;;;;;;5114415;28;20090;-68
2022/12/05 12:19:52;;;;;;;39.95;17.95;;;;;;;;;;5114293;28;20057;-68
2022/12/05 12:22:50;;;;;;;35.78;17.60;;;;;;;;;;5114099;28;20031;-68
2022/12/05 12:25:40;;;;;;;27.95;13.70;;;;;;;;;;5051226;28;20036;-68
2022/12/05 12:28:26;;;;;;;24.65;12.25;;;;;;;;;;5051546;28;20623;-68
2022/12/05 12:31:16;;;;;;;18.25;11.15;;;;;;;;;;5011530;28;20152;-68
2022/12/05 12:34:08;;;;;;;26.52;14.68;;;;;;;;;;5011659;28;20042;-68
2022/12/05 12:36:50;;;;;;;27.75;14.95;;;;;;;;;;5011295;28;20049;-68
2022/12/05 12:39:45;;;;;;;19.50;10.25;;;;;;;;;;5011361;28;20030;-68
2022/12/05 12:42:27;;;;;;;23.90;11.77;;;;;;;;;;4990615;28;20046;-67
2022/12/05 12:45:16;;;;;;;22.55;10.80;;;;;;;;;;5011589;28;20032;-68
2022/12/05 12:48:39;;;;;;;29.88;14.63;;;;;;;;;;5011450;28;20042;-68
2022/12/05 12:51:10;;;;;;;24.98;12.55;;;;;;;;;;4914681;29;20028;-68
2022/12/05 12:53:53;;;;;;;20.45;11.07;;;;;;;;;;4914452;29;20123;-67
2022/12/05 12:56:41;;;;;;;9.48;6.32;;;;;;;;;;4915005;29;20032;-68
2022/12/05 12:59:45;;;;;;;29.25;12.18;;;;;;;;;;4914853;29;20076;-68
2022/12/05 13:02:39;;;;;;;25.95;12.15;;;;;;;;;;4868234;29;20081;-67
2022/12/05 13:05:33;;;;;;;22.60;11.73;;;;;;;;;;4876074;29;20521;-68
2022/12/05 13:08:05;;;;;;;24.02;11.85;;;;;;;;;;4912366;29;20574;-68
2022/12/05 13:10:35;;;;;;;20.38;11.25;;;;;;;;;;4952030;29;20062;-68
2022/12/05 13:13:02;;;;;;;19.63;11.13;;;;;;;;;;4952371;29;20064;-68
2022/12/05 13:15:43;;;;;;;19.60;11.45;;;;;;;;;;4951627;29;20075;-67
2022/12/05 13:18:16;;;;;;;24.42;12.85;;;;;;;;;;4951635;29;20027;-67
2022/12/05 13:20:42;;;;;;;19.95;11.70;;;;;;;;;;4963688;28;20036;-67
2022/12/05 13:23:48;;;;;;;26.23;12.45;;;;;;;;;;5029329;28;20029;-67
2022/12/05 13:26:14;;;;;;;13.90;7.63;;;;;;;;;;5026999;28;20601;-68
2022/12/05 13:28:58;;;;;;;26.25;13.38;;;;;;;;;;5030534;28;20045;-67
2022/12/05 13:31:44;;;;;;;24.50;12.38;;;;;;;;;;5030209;28;20025;-68
2022/12/05 13:34:44;;;;;;;22.08;11.63;;;;;;;;;;5030332;28;20467;-68
2022/12/05 13:43:16;;;;;;;20.27;10.10;;;;;;;;;;5112765;28;20043;-69
2022/12/05 13:45:59;;;;;;;24.27;11.43;;;;;;;;;;5112887;28;20066;-68
2022/12/05 13:48:26;;;;;;;24.27;11.98;;;;;;;;;;5112524;28;20129;-68
2022/12/05 13:51:04;;;;;;;24.85;12.13;;;;;;;;;;5112536;28;20028;-68
2022/12/05 13:53:48;;;;;;;23.90;11.93;;;;;;;;;;5112842;28;20063;-68
2022/12/05 13:56:13;;;;;;;25.25;12.93;;;;;;;;;;5113087;28;20107;-68
2022/12/05 13:58:53;;;;;;;22.38;11.50;;;;;;;;;;5112851;28;20095;-68
2022/12/05 14:01:24;;;;;;;21.77;10.75;;;;;;;;;;5112720;28;20627;-68
2022/12/05 14:03:50;;;;;;;17.98;9.82;;;;;;;;;;5102510;28;20032;-68
2022/12/05 14:06:34;;;;;;;19.83;9.77;;;;;;;;;;5092454;28;20487;-68
2022/12/05 14:09:01;;;;;;;21.92;12.05;;;;;;;;;;5092389;28;20028;-69
2022/12/05 14:11:26;;;;;;;26.52;11.82;;;;;;;;;;5092286;28;20467;-68
2022/12/05 14:13:52;;;;;;;26.33;13.02;;;;;;;;;;5092213;28;20036;-68
2022/12/05 14:16:24;;;;;;;17.63;9.52;;;;;;;;;;5108697;28;20072;-68
2022/12/05 14:19:17;;;;;;;18.35;10.35;;;;;;;;;;5115972;28;20104;-69
2022/12/05 14:21:48;;;;;;;23.27;11.02;;;;;;;;;;5116614;28;20035;-69
2022/12/05 14:24:25;;;;;;;23.15;11.65;;;;;;;;;;5116794;28;20055;-68
2022/12/05 14:27:45;;;;;;;30.38;14.77;;;;;;;;;;5116296;28;20027;-68
2022/12/05 14:30:18;;;;;;;24.27;12.48;;;;;;;;;;5053897;28;20310;-68
2022/12/05 14:32:44;;;;;;;29.77;14.20;;;;;;;;;;5053514;28;20083;-68
2022/12/05 14:35:23;;;;;;;28.58;14.73;;;;;;;;;;5053320;28;20053;-68
2022/12/05 14:38:03;;;;;;;22.67;12.05;;;;;;;;;;5053501;28;20108;-68
2022/12/05 14:40:36;;;;;;;23.80;12.63;;;;;;;;;;5053707;28;20056;-69
2022/12/05 14:43:22;;;;;;;25.75;13.68;;;;;;;;;;5053426;28;20025;-68
2022/12/05 14:45:50;;;;;;;21.63;11.65;;;;;;;;;;5052784;28;20253;-68
2022/12/05 14:48:16;;;;;;;28.52;13.73;;;;;;;;;;5053292;28;20475;-68
2022/12/05 14:50:48;;;;;;;32.40;14.40;;;;;;;;;;5053141;28;20050;-69
2022/12/05 14:53:14;;;;;;;30.67;16.63;;;;;;;;;;5053263;28;20528;-68
2022/12/05 14:55:44;;;;;;;27.42;13.95;;;;;;;;;;5052542;28;20033;-68
2022/12/05 14:58:20;;;;;;;27.20;13.88;;;;;;;;;;5053185;28;20045;-68